sensor_id;sensor_type;location;lat;lon;timestamp;pressure;altitude;pressure_sealevel;temperature
72405;BMP280;60395;52.020;113.548;2023-12-20T00:00:00;94497.94;;;-25.72
72405;BMP280;60395;52.020;113.548;2023-12-20T00:03:05;94497.84;;;-25.68
72405;BMP280;60395;52.020;113.548;2023-12-20T00:06:09;94493.44;;;-25.61
72405;BMP280;60395;52.020;113.548;2023-12-20T00:09:12;94508.22;;;-25.57
72405;BMP280;60395;52.020;113.548;2023-12-20T00:12:16;94512.41;;;-25.54
72405;BMP280;60395;52.020;113.548;2023-12-20T00:15:19;94511.28;;;-25.53
72405;BMP280;60395;52.020;113.548;2023-12-20T00:18:23;94513.97;;;-25.44
72405;BMP280;60395;52.020;113.548;2023-12-20T00:21:26;94516.50;;;-25.48
72405;BMP280;60395;52.020;113.548;2023-12-20T00:24:29;94519.31;;;-25.46
72405;BMP280;60395;52.020;113.548;2023-12-20T00:27:33;94509.69;;;-25.43
72405;BMP280;60395;52.020;113.548;2023-12-20T00:30:36;94522.38;;;-25.41
72405;BMP280;60395;52.020;113.548;2023-12-20T00:33:40;94523.88;;;-25.44
72405;BMP280;60395;52.020;113.548;2023-12-20T00:36:46;94523.47;;;-25.42
72405;BMP280;60395;52.020;113.548;2023-12-20T00:39:50;94526.50;;;-25.35
72405;BMP280;60395;52.020;113.548;2023-12-20T00:42:54;94524.72;;;-25.34
72405;BMP280;60395;52.020;113.548;2023-12-20T00:45:57;94524.22;;;-25.29
72405;BMP280;60395;52.020;113.548;2023-12-20T00:49:03;94531.19;;;-25.24
72405;BMP280;60395;52.020;113.548;2023-12-20T00:52:06;94526.00;;;-25.13
72405;BMP280;60395;52.020;113.548;2023-12-20T00:55:09;94524.06;;;-25.06
72405;BMP280;60395;52.020;113.548;2023-12-20T00:58:13;94518.16;;;-24.96
72405;BMP280;60395;52.020;113.548;2023-12-20T01:01:18;94513.78;;;-24.92
72405;BMP280;60395;52.020;113.548;2023-12-20T01:04:21;94515.56;;;-24.92
72405;BMP280;60395;52.020;113.548;2023-12-20T01:07:25;94508.81;;;-24.92
72405;BMP280;60395;52.020;113.548;2023-12-20T01:10:29;94508.81;;;-24.92
72405;BMP280;60395;52.020;113.548;2023-12-20T01:13:32;94508.13;;;-24.92
72405;BMP280;60395;52.020;113.548;2023-12-20T01:16:35;94513.50;;;-24.94
72405;BMP280;60395;52.020;113.548;2023-12-20T01:19:39;94513.59;;;-24.97
72405;BMP280;60395;52.020;113.548;2023-12-20T01:22:42;94516.91;;;-25.04
72405;BMP280;60395;52.020;113.548;2023-12-20T01:25:45;94518.06;;;-25.08
72405;BMP280;60395;52.020;113.548;2023-12-20T01:28:49;94526.09;;;-25.17
72405;BMP280;60395;52.020;113.548;2023-12-20T01:31:52;94518.13;;;-25.25
72405;BMP280;60395;52.020;113.548;2023-12-20T01:34:55;94520.00;;;-25.29
72405;BMP280;60395;52.020;113.548;2023-12-20T01:38:03;94522.84;;;-25.30
72405;BMP280;60395;52.020;113.548;2023-12-20T01:41:07;94522.22;;;-25.34
72405;BMP280;60395;52.020;113.548;2023-12-20T01:44:10;94512.63;;;-25.32
72405;BMP280;60395;52.020;113.548;2023-12-20T01:47:14;94519.91;;;-25.25
72405;BMP280;60395;52.020;113.548;2023-12-20T01:50:17;94516.94;;;-25.20
72405;BMP280;60395;52.020;113.548;2023-12-20T01:53:24;94515.91;;;-25.06
72405;BMP280;60395;52.020;113.548;2023-12-20T01:56:28;94510.09;;;-25.00
72405;BMP280;60395;52.020;113.548;2023-12-20T01:59:32;94520.84;;;-24.90
72405;BMP280;60395;52.020;113.548;2023-12-20T02:02:39;94510.66;;;-24.79
72405;BMP280;60395;52.020;113.548;2023-12-20T02:05:42;94527.66;;;-24.65
72405;BMP280;60395;52.020;113.548;2023-12-20T02:08:50;94515.47;;;-24.60
72405;BMP280;60395;52.020;113.548;2023-12-20T02:11:54;94519.88;;;-24.51
72405;BMP280;60395;52.020;113.548;2023-12-20T02:14:57;94520.59;;;-24.38
72405;BMP280;60395;52.020;113.548;2023-12-20T02:18:01;94514.88;;;-24.22
72405;BMP280;60395;52.020;113.548;2023-12-20T02:21:05;94504.44;;;-24.17
72405;BMP280;60395;52.020;113.548;2023-12-20T02:24:08;94509.50;;;-24.08
72405;BMP280;60395;52.020;113.548;2023-12-20T02:27:12;94523.13;;;-23.99
72405;BMP280;60395;52.020;113.548;2023-12-20T02:30:15;94516.56;;;-23.93
72405;BMP280;60395;52.020;113.548;2023-12-20T02:33:19;94523.03;;;-23.83
72405;BMP280;60395;52.020;113.548;2023-12-20T02:36:22;94521.91;;;-23.69
72405;BMP280;60395;52.020;113.548;2023-12-20T02:39:25;94516.22;;;-23.57
72405;BMP280;60395;52.020;113.548;2023-12-20T02:42:29;94516.81;;;-23.53
72405;BMP280;60395;52.020;113.548;2023-12-20T02:45:32;94505.00;;;-23.49
72405;BMP280;60395;52.020;113.548;2023-12-20T02:48:35;94499.91;;;-23.46
72405;BMP280;60395;52.020;113.548;2023-12-20T02:51:39;94486.16;;;-23.37
72405;BMP280;60395;52.020;113.548;2023-12-20T02:54:42;94492.28;;;-23.29
72405;BMP280;60395;52.020;113.548;2023-12-20T02:57:46;94493.19;;;-23.23
72405;BMP280;60395;52.020;113.548;2023-12-20T03:00:50;94483.31;;;-23.14
72405;BMP280;60395;52.020;113.548;2023-12-20T03:03:54;94482.84;;;-23.00
72405;BMP280;60395;52.020;113.548;2023-12-20T03:06:57;94488.03;;;-22.85
72405;BMP280;60395;52.020;113.548;2023-12-20T03:10:00;94476.47;;;-22.79
72405;BMP280;60395;52.020;113.548;2023-12-20T03:13:21;94479.56;;;-22.66
72405;BMP280;60395;52.020;113.548;2023-12-20T03:16:24;94485.19;;;-22.52
72405;BMP280;60395;52.020;113.548;2023-12-20T03:19:28;94481.78;;;-22.46
72405;BMP280;60395;52.020;113.548;2023-12-20T03:22:32;94484.19;;;-22.24
72405;BMP280;60395;52.020;113.548;2023-12-20T03:25:35;94487.25;;;-22.20
72405;BMP280;60395;52.020;113.548;2023-12-20T03:28:38;94479.75;;;-22.29
72405;BMP280;60395;52.020;113.548;2023-12-20T03:31:42;94475.16;;;-22.40
72405;BMP280;60395;52.020;113.548;2023-12-20T03:34:45;94474.47;;;-22.31
72405;BMP280;60395;52.020;113.548;2023-12-20T03:37:48;94476.34;;;-22.22
72405;BMP280;60395;52.020;113.548;2023-12-20T03:40:52;94473.31;;;-22.17
72405;BMP280;60395;52.020;113.548;2023-12-20T03:43:55;94471.91;;;-22.18
72405;BMP280;60395;52.020;113.548;2023-12-20T03:46:58;94465.81;;;-22.17
72405;BMP280;60395;52.020;113.548;2023-12-20T03:50:02;94471.13;;;-22.06
72405;BMP280;60395;52.020;113.548;2023-12-20T03:53:05;94459.91;;;-22.02
72405;BMP280;60395;52.020;113.548;2023-12-20T03:56:08;94467.13;;;-21.94
72405;BMP280;60395;52.020;113.548;2023-12-20T03:59:11;94453.41;;;-21.99
72405;BMP280;60395;52.020;113.548;2023-12-20T04:02:15;94461.31;;;-21.91
72405;BMP280;60395;52.020;113.548;2023-12-20T04:05:20;94475.16;;;-21.81
72405;BMP280;60395;52.020;113.548;2023-12-20T04:08:24;94464.94;;;-21.74
72405;BMP280;60395;52.020;113.548;2023-12-20T04:11:27;94478.53;;;-21.57
72405;BMP280;60395;52.020;113.548;2023-12-20T04:14:30;94473.41;;;-21.44
72405;BMP280;60395;52.020;113.548;2023-12-20T04:17:34;94476.75;;;-21.29
72405;BMP280;60395;52.020;113.548;2023-12-20T04:20:37;94470.50;;;-21.24
72405;BMP280;60395;52.020;113.548;2023-12-20T04:23:41;94465.38;;;-21.12
72405;BMP280;60395;52.020;113.548;2023-12-20T04:26:44;94466.34;;;-21.00
72405;BMP280;60395;52.020;113.548;2023-12-20T04:29:48;94473.81;;;-21.00
72405;BMP280;60395;52.020;113.548;2023-12-20T04:32:51;94463.84;;;-21.00
72405;BMP280;60395;52.020;113.548;2023-12-20T04:35:54;94450.22;;;-20.90
72405;BMP280;60395;52.020;113.548;2023-12-20T04:38:58;94454.34;;;-20.87
72405;BMP280;60395;52.020;113.548;2023-12-20T04:42:02;94449.91;;;-20.83
72405;BMP280;60395;52.020;113.548;2023-12-20T04:45:06;94447.16;;;-20.85
72405;BMP280;60395;52.020;113.548;2023-12-20T04:48:09;94440.59;;;-20.82
72405;BMP280;60395;52.020;113.548;2023-12-20T04:51:13;94439.06;;;-20.70
72405;BMP280;60395;52.020;113.548;2023-12-20T04:54:16;94435.16;;;-20.62
72405;BMP280;60395;52.020;113.548;2023-12-20T04:57:20;94423.06;;;-20.55
72405;BMP280;60395;52.020;113.548;2023-12-20T05:00:23;94429.41;;;-20.45
72405;BMP280;60395;52.020;113.548;2023-12-20T05:03:26;94427.13;;;-20.33
72405;BMP280;60395;52.020;113.548;2023-12-20T05:06:30;94424.75;;;-20.28
72405;BMP280;60395;52.020;113.548;2023-12-20T05:09:33;94422.25;;;-20.28
72405;BMP280;60395;52.020;113.548;2023-12-20T05:12:36;94412.34;;;-20.22
72405;BMP280;60395;52.020;113.548;2023-12-20T05:15:39;94414.13;;;-20.13
72405;BMP280;60395;52.020;113.548;2023-12-20T05:18:44;94412.09;;;-20.00
72405;BMP280;60395;52.020;113.548;2023-12-20T05:21:47;94422.34;;;-19.98
72405;BMP280;60395;52.020;113.548;2023-12-20T05:24:51;94419.25;;;-19.93
72405;BMP280;60395;52.020;113.548;2023-12-20T05:27:54;94415.31;;;-19.85
72405;BMP280;60395;52.020;113.548;2023-12-20T05:30:59;94421.81;;;-19.78
72405;BMP280;60395;52.020;113.548;2023-12-20T05:34:02;94415.25;;;-19.76
72405;BMP280;60395;52.020;113.548;2023-12-20T05:37:06;94419.25;;;-19.69
72405;BMP280;60395;52.020;113.548;2023-12-20T05:40:09;94414.00;;;-19.57
72405;BMP280;60395;52.020;113.548;2023-12-20T05:43:13;94406.25;;;-19.44
72405;BMP280;60395;52.020;113.548;2023-12-20T05:46:16;94402.09;;;-19.32
72405;BMP280;60395;52.020;113.548;2023-12-20T05:49:20;94389.94;;;-19.25
72405;BMP280;60395;52.020;113.548;2023-12-20T05:52:24;94392.53;;;-19.19
72405;BMP280;60395;52.020;113.548;2023-12-20T05:55:28;94398.91;;;-19.18
72405;BMP280;60395;52.020;113.548;2023-12-20T05:58:32;94379.41;;;-19.14
72405;BMP280;60395;52.020;113.548;2023-12-20T06:01:36;94386.13;;;-19.05
72405;BMP280;60395;52.020;113.548;2023-12-20T06:04:42;94384.59;;;-19.03
72405;BMP280;60395;52.020;113.548;2023-12-20T06:07:46;94380.69;;;-19.04
72405;BMP280;60395;52.020;113.548;2023-12-20T06:10:51;94380.88;;;-19.07
72405;BMP280;60395;52.020;113.548;2023-12-20T06:13:54;94378.19;;;-19.04
72405;BMP280;60395;52.020;113.548;2023-12-20T06:16:58;94382.91;;;-19.06
72405;BMP280;60395;52.020;113.548;2023-12-20T06:20:01;94378.78;;;-19.09
72405;BMP280;60395;52.020;113.548;2023-12-20T06:23:06;94380.94;;;-19.02
72405;BMP280;60395;52.020;113.548;2023-12-20T06:26:09;94374.56;;;-19.03
72405;BMP280;60395;52.020;113.548;2023-12-20T06:29:12;94382.06;;;-19.03
72405;BMP280;60395;52.020;113.548;2023-12-20T06:32:16;94377.16;;;-18.97
72405;BMP280;60395;52.020;113.548;2023-12-20T06:35:19;94376.09;;;-18.91
72405;BMP280;60395;52.020;113.548;2023-12-20T06:38:22;94375.72;;;-18.83
72405;BMP280;60395;52.020;113.548;2023-12-20T06:41:27;94375.38;;;-18.76
72405;BMP280;60395;52.020;113.548;2023-12-20T06:44:31;94378.91;;;-18.68
72405;BMP280;60395;52.020;113.548;2023-12-20T06:47:34;94374.72;;;-18.56
72405;BMP280;60395;52.020;113.548;2023-12-20T06:50:38;94381.84;;;-18.49
72405;BMP280;60395;52.020;113.548;2023-12-20T06:53:42;94379.13;;;-18.51
72405;BMP280;60395;52.020;113.548;2023-12-20T06:56:46;94389.63;;;-18.27
72405;BMP280;60395;52.020;113.548;2023-12-20T06:59:49;94388.06;;;-18.04
72405;BMP280;60395;52.020;113.548;2023-12-20T07:02:53;94391.31;;;-17.98
72405;BMP280;60395;52.020;113.548;2023-12-20T07:05:56;94388.06;;;-18.04
72405;BMP280;60395;52.020;113.548;2023-12-20T07:09:00;94388.75;;;-18.04
72405;BMP280;60395;52.020;113.548;2023-12-20T07:12:28;94377.53;;;-18.08
72405;BMP280;60395;52.020;113.548;2023-12-20T07:15:31;94393.22;;;-18.13
72405;BMP280;60395;52.020;113.548;2023-12-20T07:18:37;94387.31;;;-18.10
72405;BMP280;60395;52.020;113.548;2023-12-20T07:21:40;94385.69;;;-18.13
72405;BMP280;60395;52.020;113.548;2023-12-20T07:24:43;94378.34;;;-18.17
72405;BMP280;60395;52.020;113.548;2023-12-20T07:27:47;94369.63;;;-18.21
72405;BMP280;60395;52.020;113.548;2023-12-20T07:30:50;94377.56;;;-18.28
72405;BMP280;60395;52.020;113.548;2023-12-20T07:33:54;94383.19;;;-18.34
72405;BMP280;60395;52.020;113.548;2023-12-20T07:36:57;94386.31;;;-18.39
72405;BMP280;60395;52.020;113.548;2023-12-20T07:40:01;94381.75;;;-18.40
72405;BMP280;60395;52.020;113.548;2023-12-20T07:43:04;94384.13;;;-18.51
72405;BMP280;60395;52.020;113.548;2023-12-20T07:46:08;94375.56;;;-18.60
72405;BMP280;60395;52.020;113.548;2023-12-20T07:49:12;94387.59;;;-18.64
72405;BMP280;60395;52.020;113.548;2023-12-20T07:52:15;94380.47;;;-18.71
72405;BMP280;60395;52.020;113.548;2023-12-20T07:55:18;94388.84;;;-18.74
72405;BMP280;60395;52.020;113.548;2023-12-20T07:58:22;94386.34;;;-18.74
72405;BMP280;60395;52.020;113.548;2023-12-20T08:01:42;94379.78;;;-18.71
72405;BMP280;60395;52.020;113.548;2023-12-20T08:04:45;94380.88;;;-18.72
72405;BMP280;60395;52.020;113.548;2023-12-20T08:07:49;94387.91;;;-18.76
72405;BMP280;60395;52.020;113.548;2023-12-20T08:10:52;94387.66;;;-18.78
72405;BMP280;60395;52.020;113.548;2023-12-20T08:13:55;94393.59;;;-18.76
72405;BMP280;60395;52.020;113.548;2023-12-20T08:16:58;94398.78;;;-18.79
72405;BMP280;60395;52.020;113.548;2023-12-20T08:20:02;94404.44;;;-18.84
72405;BMP280;60395;52.020;113.548;2023-12-20T08:23:06;94400.53;;;-18.85
72405;BMP280;60395;52.020;113.548;2023-12-20T08:26:09;94397.00;;;-18.94
72405;BMP280;60395;52.020;113.548;2023-12-20T08:29:13;94405.53;;;-19.00
72405;BMP280;60395;52.020;113.548;2023-12-20T08:32:17;94412.13;;;-19.03
72405;BMP280;60395;52.020;113.548;2023-12-20T08:35:20;94410.22;;;-19.08
72405;BMP280;60395;52.020;113.548;2023-12-20T08:38:24;94416.69;;;-19.16
72405;BMP280;60395;52.020;113.548;2023-12-20T08:41:27;94415.31;;;-19.17
72405;BMP280;60395;52.020;113.548;2023-12-20T08:44:31;94413.94;;;-19.18
72405;BMP280;60395;52.020;113.548;2023-12-20T08:47:34;94411.59;;;-19.22
72405;BMP280;60395;52.020;113.548;2023-12-20T08:50:37;94423.19;;;-19.24
72405;BMP280;60395;52.020;113.548;2023-12-20T08:53:42;94424.22;;;-19.31
72405;BMP280;60395;52.020;113.548;2023-12-20T08:56:48;94425.31;;;-19.32
72405;BMP280;60395;52.020;113.548;2023-12-20T08:59:51;94415.06;;;-19.34
72405;BMP280;60395;52.020;113.548;2023-12-20T09:02:54;94418.50;;;-19.31
72405;BMP280;60395;52.020;113.548;2023-12-20T09:05:58;94426.34;;;-19.38
72405;BMP280;60395;52.020;113.548;2023-12-20T09:09:01;94432.91;;;-19.41
72405;BMP280;60395;52.020;113.548;2023-12-20T09:12:05;94425.41;;;-19.41
72405;BMP280;60395;52.020;113.548;2023-12-20T09:15:08;94428.50;;;-19.46
72405;BMP280;60395;52.020;113.548;2023-12-20T09:18:12;94434.34;;;-19.49
72405;BMP280;60395;52.020;113.548;2023-12-20T09:21:16;94427.56;;;-19.48
72405;BMP280;60395;52.020;113.548;2023-12-20T09:24:19;94430.63;;;-19.54
72405;BMP280;60395;52.020;113.548;2023-12-20T09:27:23;94423.47;;;-19.61
72405;BMP280;60395;52.020;113.548;2023-12-20T09:30:26;94417.53;;;-19.63
72405;BMP280;60395;52.020;113.548;2023-12-20T09:33:29;94425.97;;;-19.61
72405;BMP280;60395;52.020;113.548;2023-12-20T09:36:33;94423.91;;;-19.62
72405;BMP280;60395;52.020;113.548;2023-12-20T09:39:39;94416.84;;;-19.64
72405;BMP280;60395;52.020;113.548;2023-12-20T09:43:10;94422.66;;;-19.67
72405;BMP280;60395;52.020;113.548;2023-12-20T09:46:16;94419.75;;;-19.65
72405;BMP280;60395;52.020;113.548;2023-12-20T09:49:22;94417.94;;;-19.65
72405;BMP280;60395;52.020;113.548;2023-12-20T09:52:26;94412.50;;;-19.63
72405;BMP280;60395;52.020;113.548;2023-12-20T09:55:30;94412.25;;;-19.65
72405;BMP280;60395;52.020;113.548;2023-12-20T09:58:37;94413.63;;;-19.64
72405;BMP280;60395;52.020;113.548;2023-12-20T10:01:43;94408.63;;;-19.64
72405;BMP280;60395;52.020;113.548;2023-12-20T10:04:47;94409.94;;;-19.69
72405;BMP280;60395;52.020;113.548;2023-12-20T10:07:51;94407.84;;;-19.70
72405;BMP280;60395;52.020;113.548;2023-12-20T10:10:54;94408.03;;;-19.74
72405;BMP280;60395;52.020;113.548;2023-12-20T10:14:00;94400.66;;;-19.77
72405;BMP280;60395;52.020;113.548;2023-12-20T10:17:05;94408.63;;;-19.79
72405;BMP280;60395;52.020;113.548;2023-12-20T10:20:09;94403.84;;;-19.77
72405;BMP280;60395;52.020;113.548;2023-12-20T10:23:13;94405.66;;;-19.77
72405;BMP280;60395;52.020;113.548;2023-12-20T10:26:22;94405.25;;;-19.76
72405;BMP280;60395;52.020;113.548;2023-12-20T10:29:26;94399.72;;;-19.80
72405;BMP280;60395;52.020;113.548;2023-12-20T10:32:29;94402.22;;;-19.80
72405;BMP280;60395;52.020;113.548;2023-12-20T10:35:32;94404.72;;;-19.80
72405;BMP280;60395;52.020;113.548;2023-12-20T10:38:37;94406.53;;;-19.80
72405;BMP280;60395;52.020;113.548;2023-12-20T10:41:44;94396.69;;;-19.84
72405;BMP280;60395;52.020;113.548;2023-12-20T10:44:49;94405.06;;;-19.87
72405;BMP280;60395;52.020;113.548;2023-12-20T10:47:54;94400.06;;;-19.87
72405;BMP280;60395;52.020;113.548;2023-12-20T10:50:59;94413.09;;;-19.83
72405;BMP280;60395;52.020;113.548;2023-12-20T10:54:03;94411.13;;;-19.79
72405;BMP280;60395;52.020;113.548;2023-12-20T10:57:06;94411.31;;;-19.68
72405;BMP280;60395;52.020;113.548;2023-12-20T11:00:12;94403.53;;;-19.70
72405;BMP280;60395;52.020;113.548;2023-12-20T11:03:20;94415.75;;;-19.72
72405;BMP280;60395;52.020;113.548;2023-12-20T11:09:35;94408.56;;;-19.70
72405;BMP280;60395;52.020;113.548;2023-12-20T11:12:49;94405.94;;;-19.75
72405;BMP280;60395;52.020;113.548;2023-12-20T11:15:55;94414.84;;;-19.74
72405;BMP280;60395;52.020;113.548;2023-12-20T11:19:04;94421.69;;;-19.84
72405;BMP280;60395;52.020;113.548;2023-12-20T11:22:09;94418.25;;;-19.87
72405;BMP280;60395;52.020;113.548;2023-12-20T11:25:12;94419.38;;;-19.88
72405;BMP280;60395;52.020;113.548;2023-12-20T11:28:15;94419.91;;;-19.83
72405;BMP280;60395;52.020;113.548;2023-12-20T11:31:23;94424.47;;;-19.82
72405;BMP280;60395;52.020;113.548;2023-12-20T11:34:28;94417.66;;;-19.81
72405;BMP280;60395;52.020;113.548;2023-12-20T11:37:36;94431.81;;;-19.78
72405;BMP280;60395;52.020;113.548;2023-12-20T11:40:42;94423.09;;;-19.83
72405;BMP280;60395;52.020;113.548;2023-12-20T11:43:46;94427.97;;;-19.89
72405;BMP280;60395;52.020;113.548;2023-12-20T11:46:49;94424.25;;;-19.93
72405;BMP280;60395;52.020;113.548;2023-12-20T11:49:53;94425.44;;;-20.03
72405;BMP280;60395;52.020;113.548;2023-12-20T11:52:58;94424.59;;;-20.00
72405;BMP280;60395;52.020;113.548;2023-12-20T11:56:03;94421.03;;;-20.08
72405;BMP280;60395;52.020;113.548;2023-12-20T11:59:08;94427.16;;;-20.09
72405;BMP280;60395;52.020;113.548;2023-12-20T12:02:24;94428.13;;;-20.16
72405;BMP280;60395;52.020;113.548;2023-12-20T12:05:27;94428.72;;;-20.21
72405;BMP280;60395;52.020;113.548;2023-12-20T12:08:31;94429.75;;;-20.28
72405;BMP280;60395;52.020;113.548;2023-12-20T12:11:34;94436.00;;;-20.32
72405;BMP280;60395;52.020;113.548;2023-12-20T12:14:38;94432.56;;;-20.44
72405;BMP280;60395;52.020;113.548;2023-12-20T12:17:43;94438.53;;;-20.41
72405;BMP280;60395;52.020;113.548;2023-12-20T12:20:46;94439.13;;;-20.47
72405;BMP280;60395;52.020;113.548;2023-12-20T12:23:50;94441.88;;;-20.45
72405;BMP280;60395;52.020;113.548;2023-12-20T12:26:57;94429.53;;;-20.39
72405;BMP280;60395;52.020;113.548;2023-12-20T12:30:02;94430.53;;;-20.46
72405;BMP280;60395;52.020;113.548;2023-12-20T12:33:11;94435.66;;;-20.49
72405;BMP280;60395;52.020;113.548;2023-12-20T12:36:15;94430.13;;;-20.53
72405;BMP280;60395;52.020;113.548;2023-12-20T12:39:20;94429.44;;;-20.54
72405;BMP280;60395;52.020;113.548;2023-12-20T12:42:24;94421.94;;;-20.54
72405;BMP280;60395;52.020;113.548;2023-12-20T12:45:31;94423.63;;;-20.60
72405;BMP280;60395;52.020;113.548;2023-12-20T12:48:35;94426.72;;;-20.74
72405;BMP280;60395;52.020;113.548;2023-12-20T12:51:39;94430.34;;;-20.75
72405;BMP280;60395;52.020;113.548;2023-12-20T12:54:42;94426.19;;;-20.78
72405;BMP280;60395;52.020;113.548;2023-12-20T12:57:47;94433.13;;;-20.82
72405;BMP280;60395;52.020;113.548;2023-12-20T13:00:51;94424.41;;;-20.87
72405;BMP280;60395;52.020;113.548;2023-12-20T13:03:54;94416.38;;;-20.91
72405;BMP280;60395;52.020;113.548;2023-12-20T13:06:57;94418.59;;;-20.93
72405;BMP280;60395;52.020;113.548;2023-12-20T13:10:01;94409.47;;;-20.96
72405;BMP280;60395;52.020;113.548;2023-12-20T13:13:04;94431.94;;;-20.96
72405;BMP280;60395;52.020;113.548;2023-12-20T13:16:07;94432.22;;;-21.03
72405;BMP280;60395;52.020;113.548;2023-12-20T13:19:11;94425.59;;;-21.06
72405;BMP280;60395;52.020;113.548;2023-12-20T13:22:15;94429.06;;;-21.13
72405;BMP280;60395;52.020;113.548;2023-12-20T13:25:18;94436.25;;;-21.15
72405;BMP280;60395;52.020;113.548;2023-12-20T13:28:21;94433.94;;;-21.18
72405;BMP280;60395;52.020;113.548;2023-12-20T13:31:25;94437.69;;;-21.23
72405;BMP280;60395;52.020;113.548;2023-12-20T13:34:28;94442.94;;;-21.30
72405;BMP280;60395;52.020;113.548;2023-12-20T13:37:32;94436.16;;;-21.29
72405;BMP280;60395;52.020;113.548;2023-12-20T13:40:35;94436.16;;;-21.29
72405;BMP280;60395;52.020;113.548;2023-12-20T13:43:38;94430.84;;;-21.31
72405;BMP280;60395;52.020;113.548;2023-12-20T13:46:41;94429.22;;;-21.34
72405;BMP280;60395;52.020;113.548;2023-12-20T13:49:45;94427.81;;;-21.36
72405;BMP280;60395;52.020;113.548;2023-12-20T13:52:48;94438.91;;;-21.37
72405;BMP280;60395;52.020;113.548;2023-12-20T13:55:51;94427.13;;;-21.36
72405;BMP280;60395;52.020;113.548;2023-12-20T13:58:54;94421.44;;;-21.37
72405;BMP280;60395;52.020;113.548;2023-12-20T14:01:58;94423.00;;;-21.39
72405;BMP280;60395;52.020;113.548;2023-12-20T14:05:01;94428.13;;;-21.43
72405;BMP280;60395;52.020;113.548;2023-12-20T14:08:06;94426.16;;;-21.48
72405;BMP280;60395;52.020;113.548;2023-12-20T14:11:10;94425.78;;;-21.46
72405;BMP280;60395;52.020;113.548;2023-12-20T14:14:14;94420.91;;;-21.41
72405;BMP280;60395;52.020;113.548;2023-12-20T14:17:17;94432.69;;;-21.41
72405;BMP280;60395;52.020;113.548;2023-12-20T14:20:20;94434.19;;;-21.44
72405;BMP280;60395;52.020;113.548;2023-12-20T14:23:24;94435.75;;;-21.46
72405;BMP280;60395;52.020;113.548;2023-12-20T14:26:27;94427.41;;;-21.43
72405;BMP280;60395;52.020;113.548;2023-12-20T14:29:31;94430.50;;;-21.39
72405;BMP280;60395;52.020;113.548;2023-12-20T14:32:35;94428.53;;;-21.44
72405;BMP280;60395;52.020;113.548;2023-12-20T14:35:41;94421.31;;;-21.42
72405;BMP280;60395;52.020;113.548;2023-12-20T14:38:47;94424.09;;;-21.40
72405;BMP280;60395;52.020;113.548;2023-12-20T14:41:52;94412.00;;;-21.32
72405;BMP280;60395;52.020;113.548;2023-12-20T14:44:55;94426.97;;;-21.32
72405;BMP280;60395;52.020;113.548;2023-12-20T14:47:59;94423.13;;;-21.33
72405;BMP280;60395;52.020;113.548;2023-12-20T14:51:02;94421.88;;;-21.29
72405;BMP280;60395;52.020;113.548;2023-12-20T14:54:06;94421.19;;;-21.29
72405;BMP280;60395;52.020;113.548;2023-12-20T14:57:13;94423.81;;;-21.33
72405;BMP280;60395;52.020;113.548;2023-12-20T15:00:16;94421.88;;;-21.29
72405;BMP280;60395;52.020;113.548;2023-12-20T15:03:20;94417.69;;;-21.32
72405;BMP280;60395;52.020;113.548;2023-12-20T15:06:24;94422.97;;;-21.30
72405;BMP280;60395;52.020;113.548;2023-12-20T15:09:28;94411.34;;;-21.33
72405;BMP280;60395;52.020;113.548;2023-12-20T15:12:32;94413.84;;;-21.33
72405;BMP280;60395;52.020;113.548;2023-12-20T15:15:37;94429.63;;;-21.36
72405;BMP280;60395;52.020;113.548;2023-12-20T15:18:40;94428.53;;;-21.35
72405;BMP280;60395;52.020;113.548;2023-12-20T15:21:43;94429.63;;;-21.36
72405;BMP280;60395;52.020;113.548;2023-12-20T15:24:49;94441.16;;;-21.39
72405;BMP280;60395;52.020;113.548;2023-12-20T15:27:54;94442.97;;;-21.39
72405;BMP280;60395;52.020;113.548;2023-12-20T15:30:58;94429.78;;;-21.40
72405;BMP280;60395;52.020;113.548;2023-12-20T15:34:01;94421.16;;;-21.48
72405;BMP280;60395;52.020;113.548;2023-12-20T15:37:04;94410.25;;;-21.50
72405;BMP280;60395;52.020;113.548;2023-12-20T15:40:08;94411.50;;;-21.55
72405;BMP280;60395;52.020;113.548;2023-12-20T15:43:16;94415.09;;;-21.56
72405;BMP280;60395;52.020;113.548;2023-12-20T15:46:19;94419.38;;;-21.56
72405;BMP280;60395;52.020;113.548;2023-12-20T15:49:22;94414.41;;;-21.56
72405;BMP280;60395;52.020;113.548;2023-12-20T15:52:25;94414.53;;;-21.60
72405;BMP280;60395;52.020;113.548;2023-12-20T15:55:29;94414.69;;;-21.63
72405;BMP280;60395;52.020;113.548;2023-12-20T15:58:32;94414.41;;;-21.66
72405;BMP280;60395;52.020;113.548;2023-12-20T16:01:36;94422.31;;;-21.67
72405;BMP280;60395;52.020;113.548;2023-12-20T16:04:40;94424.38;;;-21.75
72405;BMP280;60395;52.020;113.548;2023-12-20T16:07:43;94427.69;;;-21.78
72405;BMP280;60395;52.020;113.548;2023-12-20T16:10:47;94425.47;;;-21.85
72405;BMP280;60395;52.020;113.548;2023-12-20T16:13:50;94439.03;;;-21.86
72405;BMP280;60395;52.020;113.548;2023-12-20T16:16:55;94436.69;;;-21.89
72405;BMP280;60395;52.020;113.548;2023-12-20T16:19:59;94437.25;;;-21.94
72405;BMP280;60395;52.020;113.548;2023-12-20T16:23:02;94444.03;;;-21.95
72405;BMP280;60395;52.020;113.548;2023-12-20T16:26:06;94445.53;;;-21.98
72405;BMP280;60395;52.020;113.548;2023-12-20T16:29:10;94452.03;;;-22.00
72405;BMP280;60395;52.020;113.548;2023-12-20T16:32:15;94453.28;;;-21.96
72405;BMP280;60395;52.020;113.548;2023-12-20T16:35:19;94449.41;;;-21.97
72405;BMP280;60395;52.020;113.548;2023-12-20T16:38:22;94450.25;;;-21.90
72405;BMP280;60395;52.020;113.548;2023-12-20T16:45:30;94454.38;;;-21.97
72405;BMP280;60395;52.020;113.548;2023-12-20T16:48:34;94458.25;;;-21.96
72405;BMP280;60395;52.020;113.548;2023-12-20T16:51:37;94457.19;;;-21.94
72405;BMP280;60395;52.020;113.548;2023-12-20T16:54:41;94455.63;;;-22.01
72405;BMP280;60395;52.020;113.548;2023-12-20T16:57:45;94456.59;;;-21.99
72405;BMP280;60395;52.020;113.548;2023-12-20T17:00:49;94454.94;;;-22.02